Старый Оскол

Карта отелей и гостиниц, располагающихся рядом с аэропортом Старый Оскол :



Старый Оскол Белгородская область 51° 19' 45.3" N, 37° 46' 9.4188" E
Код аэродрома ИКАО: 
UUOS
Код аэродрома RU: 
УУОС
Координаты: 
N51.32925° E037.76928°
Превышение над уровнем моря : 
219
Основная полоса: 
04/22
Курс магнитный: 
040,4/220,4
Длина основной ВПП: 
1800
Ширина основной ВПП: 
42
Покрытие основной ВПП: 
Твёрдое (асфальтобетон)
Тип: 
Аэродром
Освещение ВПП: 
По запросу
Класс аэродрома: 
Статус: 
Действующий
Принадлежность: 
ГА
Сайт: 
http://www.airportoskol.ru/
E-mail аэродрома: 
stoskolaeroport@mail.ru
Страна: 
Россия
Регион: 
Белгородская область
Город: 
Дополнительная информация: 
Оператор: ОАО "Аэропорт Старый Оскол". Нкр.=(500)м, ОПРС: 384-"ОЛ", ВС до 65 тонн. 4 места стоянки ВС. Принимаемые типы ВС: АН-24, ЯК-42, SAAB-2000, Ан-12, Ан-74.

Найти трансфер

С помощью этой формы Вы можете найти трансфер из аэропорта Старый Оскол в город, аэропорт или вокзал:

Карта места

Javascript is required to view this map.

Погода в аэропортах:

Авиационная погода в Йоэнсуу

Регион: 
Погода METAR: 
EFJO 042250Z AUTO 09008KT 050V120 6000 -SHRA OVC005 12/11 Q1001
Время наблюдения: 
2020-06-04T22:50:00Z
Температура C: 
12.0
Точка росы: 
11.0
Направление ветра: 
90
Скорость ветра: 
8
Метеорологическая видимость: 
3.73
Явления погоды: 
-SHRA
Условия полета: 
IFR

Авиационная погода в Елизово

Регион: 
Погода METAR: 
UHPP 042300Z 18002MPS 150V210 9999 -SHRA BKN009 OVC016CB 09/09 Q1019 R16R/290250 NOSIG RMK MT OBSC QFE761/1015
Время наблюдения: 
2020-06-04T23:00:00Z
Температура C: 
9.0
Точка росы: 
9.0
Направление ветра: 
180
Скорость ветра: 
4
Метеорологическая видимость: 
6.21
Явления погоды: 
-SHRA
Условия полета: 
IFR
Аэропорт подробнее: 

Авиационная погода в Миккели

Регион: 
Погода METAR: 
EFMI 042250Z AUTO 02004KT 280V090 6000 -SHRA OVC005 ///// Q////
Время наблюдения: 
2020-06-04T22:50:00Z
Направление ветра: 
20
Скорость ветра: 
4
Метеорологическая видимость: 
3.73
Явления погоды: 
-SHRA
Условия полета: 
IFR

Авиационная погода в Трабзоне

Регион: 
Погода METAR: 
LTCG 042250Z 16006KT 100V240 9999 -SHRA SCT035 BKN090 18/16 Q1018 NOSIG RMK RWY29 15005KT 110V180
Время наблюдения: 
2020-06-04T22:50:00Z
Температура C: 
18.0
Точка росы: 
16.0
Направление ветра: 
160
Скорость ветра: 
6
Метеорологическая видимость: 
6.21
Явления погоды: 
-SHRA
Условия полета: 
VFR